Time;durP1;ratioP1;P1;durP2;ratioP2;P2;SDS_P1;SDS_P2;PMS_P1;PMS_P2;Temp;Humidity;BMP_temperature;BMP_pressure;BME280_temperature;BME280_humidity;BME280_pressure;Samples;Min_cycle;Max_cycle;Signal;HPM_P1;HPM_P2
2022/03/16 00:02:01;;;;;;;20.90;10.18;;;;;;;-148.23;100.00;61223.13;4980409;28;20030;-69
2022/03/16 00:04:26;;;;;;;18.67;10.02;;;;;;;-148.23;100.00;61223.13;4986615;28;20034;-69
2022/03/16 00:06:51;;;;;;;22.17;10.98;;;;;;;-148.23;100.00;61223.13;4963969;28;20080;-69
2022/03/16 00:09:17;;;;;;;20.30;11.82;;;;;;;-148.23;100.00;61223.13;4977784;28;20062;-70
2022/03/16 00:11:42;;;;;;;19.85;10.35;;;;;;;-148.23;100.00;61223.13;4981109;28;20118;-69
2022/03/16 00:14:07;;;;;;;18.10;10.25;;;;;;;-148.23;100.00;61223.13;4986239;28;20037;-69
2022/03/16 00:16:33;;;;;;;26.35;12.18;;;;;;;-148.23;100.00;61223.13;4981395;28;20088;-70
2022/03/16 00:18:58;;;;;;;29.73;10.65;;;;;;;-148.23;100.00;61223.13;4978997;28;20050;-69
2022/03/16 00:21:23;;;;;;;58.47;12.43;;;;;;;-148.23;100.00;61223.13;4973706;28;20389;-69
2022/03/16 00:23:49;;;;;;;24.80;13.07;;;;;;;-148.23;100.00;61223.13;4982607;28;20124;-69
2022/03/16 00:26:15;;;;;;;27.20;13.73;;;;;;;-148.23;100.00;61223.13;4979739;28;20026;-69
2022/03/16 00:28:40;;;;;;;25.55;13.75;;;;;;;-148.23;100.00;61223.13;4980111;28;20034;-69
2022/03/16 00:31:05;;;;;;;32.97;15.25;;;;;;;-148.23;100.00;61223.13;4978974;28;20026;-69
2022/03/16 00:33:31;;;;;;;25.77;12.85;;;;;;;-148.23;100.00;61223.13;4975972;28;20030;-69
2022/03/16 00:35:57;;;;;;;23.88;13.40;;;;;;;-148.23;100.00;61223.13;4982637;28;20497;-69
2022/03/16 00:38:22;;;;;;;22.17;11.85;;;;;;;-148.23;100.00;61223.13;4982405;28;20045;-69
2022/03/16 00:40:47;;;;;;;22.25;12.55;;;;;;;-148.23;100.00;61223.13;4975300;28;20065;-69
2022/03/16 00:43:14;;;;;;;26.35;13.18;;;;;;;-148.23;100.00;61223.13;4974304;28;20452;-69
2022/03/16 00:45:39;;;;;;;25.08;13.45;;;;;;;-148.23;100.00;61223.13;4979328;28;20133;-69
2022/03/16 00:48:04;;;;;;;21.02;11.68;;;;;;;-148.23;100.00;61223.13;4981150;28;20042;-69
2022/03/16 00:50:30;;;;;;;21.42;12.20;;;;;;;-148.23;100.00;61223.13;4976099;28;20054;-69
2022/03/16 00:52:55;;;;;;;21.73;12.05;;;;;;;-148.23;100.00;61223.13;4980689;28;20105;-69
2022/03/16 00:55:21;;;;;;;23.30;13.43;;;;;;;-148.23;100.00;61223.13;4971962;28;20073;-69
2022/03/16 00:57:46;;;;;;;25.52;12.88;;;;;;;-148.23;100.00;61223.13;4975530;28;20437;-69
2022/03/16 01:00:11;;;;;;;29.65;13.35;;;;;;;-148.23;100.00;61223.13;4978065;28;20153;-69
2022/03/16 01:02:37;;;;;;;36.45;15.38;;;;;;;-148.23;100.00;61223.13;4974167;28;20042;-69
2022/03/16 01:05:02;;;;;;;30.65;15.02;;;;;;;-148.23;100.00;61223.13;4985200;28;20097;-69
2022/03/16 01:07:28;;;;;;;29.45;13.50;;;;;;;-148.23;100.00;61223.13;4977838;28;20076;-69
2022/03/16 01:09:53;;;;;;;30.40;13.63;;;;;;;-148.23;100.00;61223.13;4977044;28;20029;-69
2022/03/16 01:12:20;;;;;;;22.15;12.95;;;;;;;-148.23;100.00;61223.13;4976008;28;20028;-69
2022/03/16 01:14:45;;;;;;;26.52;13.93;;;;;;;-148.23;100.00;61223.13;4982915;28;20034;-69
2022/03/16 01:17:11;;;;;;;25.83;13.63;;;;;;;-148.23;100.00;61223.13;4980098;28;20491;-69
2022/03/16 01:19:36;;;;;;;28.55;14.00;;;;;;;-148.23;100.00;61223.13;4982668;28;20031;-69
2022/03/16 01:22:03;;;;;;;23.27;12.52;;;;;;;-148.23;100.00;61223.13;4981803;28;20097;-69
2022/03/16 01:24:28;;;;;;;23.23;11.98;;;;;;;-148.23;100.00;61223.13;4982490;28;20473;-69
2022/03/16 01:26:54;;;;;;;23.77;12.07;;;;;;;-148.23;100.00;61223.13;4983803;28;20034;-69
2022/03/16 01:29:19;;;;;;;25.92;13.10;;;;;;;-148.23;100.00;61223.13;4977224;28;20037;-69
2022/03/16 01:31:44;;;;;;;21.58;12.63;;;;;;;-148.23;100.00;61223.13;4978927;28;20027;-69
2022/03/16 01:34:10;;;;;;;33.15;14.65;;;;;;;-148.23;100.00;61223.13;4982864;28;20077;-69
2022/03/16 01:36:36;;;;;;;30.85;15.32;;;;;;;-148.23;100.00;61223.13;4978366;28;20469;-69
2022/03/16 01:39:02;;;;;;;30.33;14.48;;;;;;;-148.23;100.00;61223.13;4984733;28;20029;-69
2022/03/16 01:41:27;;;;;;;33.70;15.23;;;;;;;-148.23;100.00;61223.13;4979519;28;20053;-69
2022/03/16 01:43:54;;;;;;;28.10;13.63;;;;;;;-148.23;100.00;61223.13;4983276;28;20034;-69
2022/03/16 01:46:20;;;;;;;31.67;13.90;;;;;;;-148.23;100.00;61223.13;4973477;28;20336;-69
2022/03/16 01:48:45;;;;;;;21.33;11.23;;;;;;;-148.23;100.00;61223.13;4978960;28;20268;-69
2022/03/16 01:51:11;;;;;;;28.02;12.18;;;;;;;-148.23;100.00;61223.13;4980153;28;20149;-69
2022/03/16 01:53:36;;;;;;;41.95;13.65;;;;;;;-148.23;100.00;61223.13;4978116;28;20041;-69
2022/03/16 01:56:01;;;;;;;28.67;12.55;;;;;;;-148.23;100.00;61223.13;4974359;28;20034;-69
2022/03/16 01:58:27;;;;;;;25.90;14.00;;;;;;;-148.23;100.00;61223.13;4977104;28;20057;-69
2022/03/16 02:00:52;;;;;;;29.40;13.65;;;;;;;-148.23;100.00;61223.13;4976133;28;20026;-69
2022/03/16 02:03:17;;;;;;;23.23;13.07;;;;;;;-148.23;100.00;61223.13;4979543;28;20030;-69
2022/03/16 02:05:43;;;;;;;31.83;16.10;;;;;;;-148.23;100.00;61223.13;4984268;28;20058;-69
2022/03/16 02:08:10;;;;;;;27.17;13.18;;;;;;;-148.23;100.00;61223.13;4977518;28;20046;-69
2022/03/16 02:10:36;;;;;;;37.75;16.50;;;;;;;-148.23;100.00;61223.13;4979228;28;20038;-70
2022/03/16 02:13:02;;;;;;;46.38;20.30;;;;;;;-148.23;100.00;61223.13;4981295;28;20049;-69
2022/03/16 02:15:27;;;;;;;50.80;19.83;;;;;;;-148.23;100.00;61223.13;4980452;28;20444;-69
2022/03/16 02:17:55;;;;;;;47.67;20.05;;;;;;;-148.23;100.00;61223.13;4977882;28;20030;-69
2022/03/16 02:20:21;;;;;;;53.22;22.60;;;;;;;-148.23;100.00;61223.13;4977781;28;20122;-69
2022/03/16 02:23:06;;;;;;;59.47;25.08;;;;;;;-148.23;100.00;61223.13;4976906;28;20046;-69
2022/03/16 02:25:32;;;;;;;54.97;22.50;;;;;;;-148.23;100.00;61223.13;4978879;28;20046;-69
2022/03/16 02:27:58;;;;;;;56.75;24.63;;;;;;;-148.23;100.00;61223.13;4979142;28;20034;-69
2022/03/16 02:30:26;;;;;;;83.07;31.23;;;;;;;-148.23;100.00;61223.13;4981481;28;20329;-69
2022/03/16 02:32:51;;;;;;;69.50;27.05;;;;;;;-148.23;100.00;61223.13;4975766;28;20026;-69
2022/03/16 02:35:17;;;;;;;54.53;24.70;;;;;;;-148.23;100.00;61223.13;4980675;28;20472;-69
2022/03/16 02:37:42;;;;;;;58.55;25.92;;;;;;;-148.23;100.00;61223.13;4980552;28;20387;-69
2022/03/16 02:40:12;;;;;;;49.40;23.23;;;;;;;-148.23;100.00;61223.13;4979466;28;20031;-69
2022/03/16 02:42:37;;;;;;;47.72;21.95;;;;;;;-148.23;100.00;61223.13;4979113;28;20038;-69
2022/03/16 02:45:04;;;;;;;54.25;23.38;;;;;;;-148.23;100.00;61223.13;4982873;28;20045;-69
2022/03/16 02:47:30;;;;;;;53.55;24.65;;;;;;;-148.23;100.00;61223.13;4979499;28;20112;-69
2022/03/16 02:49:56;;;;;;;59.50;25.35;;;;;;;-148.23;100.00;61223.13;4979826;28;20053;-69
2022/03/16 02:52:22;;;;;;;55.67;25.80;;;;;;;-148.23;100.00;61223.13;4975164;28;20449;-69
2022/03/16 02:54:48;;;;;;;62.50;24.98;;;;;;;-148.23;100.00;61223.13;4973755;28;20030;-69
2022/03/16 02:57:16;;;;;;;56.05;23.73;;;;;;;-148.23;100.00;61223.13;4980503;28;20378;-69
2022/03/16 02:59:42;;;;;;;57.20;25.10;;;;;;;-148.23;100.00;61223.13;4977608;28;20521;-69
2022/03/16 03:02:07;;;;;;;60.05;24.73;;;;;;;-148.23;100.00;61223.13;4975465;28;20034;-69
2022/03/16 03:04:32;;;;;;;48.33;22.73;;;;;;;-148.23;100.00;61223.13;4967903;28;20034;-69
2022/03/16 03:06:58;;;;;;;56.85;24.92;;;;;;;-148.23;100.00;61223.13;4975738;28;20027;-69
2022/03/16 03:09:23;;;;;;;51.33;24.33;;;;;;;-148.23;100.00;61223.13;4975943;28;20029;-69
2022/03/16 03:11:48;;;;;;;60.70;24.67;;;;;;;-148.23;100.00;61223.13;4972165;28;20026;-69
2022/03/16 03:14:14;;;;;;;56.55;24.38;;;;;;;-148.23;100.00;61223.13;4986119;28;20161;-69
2022/03/16 03:16:39;;;;;;;55.83;26.33;;;;;;;-148.23;100.00;61223.13;4978532;28;20057;-69
2022/03/16 03:19:04;;;;;;;62.03;26.27;;;;;;;-148.23;100.00;61223.13;4979941;28;20038;-69
2022/03/16 03:21:29;;;;;;;62.95;27.23;;;;;;;-148.23;100.00;61223.13;4984060;28;20070;-69
2022/03/16 03:23:55;;;;;;;68.40;28.80;;;;;;;-148.23;100.00;61223.13;4984284;28;20036;-69
2022/03/16 03:26:20;;;;;;;59.58;26.98;;;;;;;-148.23;100.00;61223.13;4982436;28;20054;-69
2022/03/16 03:28:45;;;;;;;53.88;25.77;;;;;;;-148.23;100.00;61223.13;4975131;28;20031;-69
2022/03/16 03:31:11;;;;;;;66.00;28.27;;;;;;;-148.23;100.00;61223.13;4984413;28;20109;-69
2022/03/16 03:33:36;;;;;;;57.83;26.30;;;;;;;-148.23;100.00;61223.13;4992200;28;20041;-69
2022/03/16 03:36:01;;;;;;;65.15;28.90;;;;;;;-148.23;100.00;61223.13;4988738;28;20038;-69
2022/03/16 03:38:27;;;;;;;62.35;26.67;;;;;;;-148.23;100.00;61223.13;4987031;28;20590;-69
2022/03/16 03:40:52;;;;;;;63.67;28.77;;;;;;;-148.23;100.00;61223.13;4981098;28;20030;-69
2022/03/16 03:43:17;;;;;;;69.75;30.25;;;;;;;-148.23;100.00;61223.13;4984802;28;20068;-69
2022/03/16 03:45:42;;;;;;;69.50;28.95;;;;;;;-148.23;100.00;61223.13;4984415;28;20057;-70
2022/03/16 03:48:08;;;;;;;74.93;30.85;;;;;;;-148.23;100.00;61223.13;4983986;28;20058;-69
2022/03/16 03:50:34;;;;;;;69.32;30.60;;;;;;;-148.23;100.00;61223.13;4976646;28;20428;-69
2022/03/16 03:52:59;;;;;;;75.47;30.52;;;;;;;-148.23;100.00;61223.13;4981634;28;20108;-70
2022/03/16 03:55:24;;;;;;;64.65;29.67;;;;;;;-148.23;100.00;61223.13;4960255;28;20390;-69
2022/03/16 03:57:50;;;;;;;80.97;33.25;;;;;;;-148.23;100.00;61223.13;4977812;28;20113;-69
2022/03/16 04:00:15;;;;;;;69.45;28.67;;;;;;;-148.23;100.00;61223.13;4984761;28;20030;-70
2022/03/16 04:02:50;;;;;;;72.28;31.75;;;;;;;-148.23;100.00;61223.13;4982448;28;20242;-69
2022/03/16 04:05:17;;;;;;;65.35;28.42;;;;;;;-148.23;100.00;61223.13;4979528;28;20157;-69
2022/03/16 04:07:42;;;;;;;59.08;26.83;;;;;;;-148.23;100.00;61223.13;4980844;28;20070;-70
2022/03/16 04:10:08;;;;;;;59.88;26.45;;;;;;;-148.23;100.00;61223.13;4979793;28;20146;-69
2022/03/16 04:12:34;;;;;;;60.83;27.25;;;;;;;-148.23;100.00;61223.13;4980532;28;20026;-69
2022/03/16 04:14:59;;;;;;;64.82;27.75;;;;;;;-148.23;100.00;61223.13;4981044;28;20465;-70
2022/03/16 04:17:24;;;;;;;72.13;28.38;;;;;;;-148.23;100.00;61223.13;4975535;28;20037;-69
2022/03/16 04:19:50;;;;;;;72.32;28.63;;;;;;;-148.23;100.00;61223.13;4981807;28;20050;-69
2022/03/16 04:22:15;;;;;;;71.32;30.08;;;;;;;-148.23;100.00;61223.13;4995245;28;20390;-70
2022/03/16 04:24:40;;;;;;;71.38;31.35;;;;;;;-148.23;100.00;61223.13;4984863;28;20512;-69
2022/03/16 04:27:06;;;;;;;58.63;27.48;;;;;;;-148.23;100.00;61223.13;4978810;28;20196;-69
2022/03/16 04:29:31;;;;;;;70.70;28.75;;;;;;;-148.23;100.00;61223.13;4976571;28;20086;-69
2022/03/16 04:31:58;;;;;;;66.43;29.17;;;;;;;-148.23;100.00;61223.13;4975671;28;20038;-69
2022/03/16 04:34:23;;;;;;;63.83;29.42;;;;;;;-148.23;100.00;61223.13;4980299;28;20034;-69
2022/03/16 04:36:49;;;;;;;70.25;30.73;;;;;;;-148.23;100.00;61223.13;4981615;28;20240;-69
2022/03/16 04:39:14;;;;;;;81.65;33.47;;;;;;;-148.23;100.00;61223.13;4981435;28;20031;-69
2022/03/16 04:41:40;;;;;;;67.18;28.85;;;;;;;-148.23;100.00;61223.13;4974877;28;20504;-69
2022/03/16 04:44:05;;;;;;;70.25;29.67;;;;;;;-148.23;100.00;61223.13;4985012;28;20026;-70
2022/03/16 04:46:30;;;;;;;62.13;27.83;;;;;;;-148.23;100.00;61223.13;4981561;28;20038;-69
2022/03/16 04:48:55;;;;;;;70.45;29.98;;;;;;;-148.23;100.00;61223.13;4980184;28;20509;-69
2022/03/16 04:51:21;;;;;;;58.53;25.63;;;;;;;-148.23;100.00;61223.13;4975897;28;20038;-69
2022/03/16 04:53:46;;;;;;;61.05;27.40;;;;;;;-148.23;100.00;61223.13;4984199;28;20596;-69
2022/03/16 04:56:12;;;;;;;72.78;29.45;;;;;;;-148.23;100.00;61223.13;4977976;28;20035;-69
2022/03/16 04:58:38;;;;;;;71.30;29.58;;;;;;;-148.23;100.00;61223.13;4976289;28;20359;-69
2022/03/16 05:01:03;;;;;;;63.78;27.75;;;;;;;-148.23;100.00;61223.13;4977576;28;20031;-69
2022/03/16 05:03:28;;;;;;;67.57;28.75;;;;;;;-148.23;100.00;61223.13;4986360;28;20033;-69
2022/03/16 05:05:54;;;;;;;77.18;29.77;;;;;;;-148.23;100.00;61223.13;4984655;28;20022;-70
2022/03/16 05:08:19;;;;;;;63.92;28.10;;;;;;;-148.23;100.00;61223.13;4964844;28;20030;-69
2022/03/16 05:10:44;;;;;;;60.05;26.65;;;;;;;-148.23;100.00;61223.13;4979549;28;20442;-69
2022/03/16 05:13:10;;;;;;;63.03;26.20;;;;;;;-148.23;100.00;61223.13;4965799;28;20066;-69
2022/03/16 05:15:35;;;;;;;66.65;28.05;;;;;;;-148.23;100.00;61223.13;4984711;28;20034;-69
2022/03/16 05:18:00;;;;;;;59.60;24.75;;;;;;;-148.23;100.00;61223.13;4962841;28;20034;-69
2022/03/16 05:20:26;;;;;;;60.28;25.75;;;;;;;-148.23;100.00;61223.13;4960222;28;20400;-69
2022/03/16 05:22:52;;;;;;;62.58;26.20;;;;;;;-148.23;100.00;61223.13;4975129;28;20026;-69
2022/03/16 05:25:21;;;;;;;53.88;24.30;;;;;;;-148.23;100.00;61223.13;4973421;28;20023;-69
2022/03/16 05:27:46;;;;;;;67.15;27.45;;;;;;;-148.23;100.00;61223.13;4957241;28;20082;-70
2022/03/16 05:30:12;;;;;;;58.97;26.35;;;;;;;-148.23;100.00;61223.13;4973473;28;20166;-69
2022/03/16 05:32:41;;;;;;;54.63;23.45;;;;;;;-148.23;100.00;61223.13;4973872;28;20027;-69
2022/03/16 05:35:08;;;;;;;52.10;23.35;;;;;;;-148.23;100.00;61223.13;4976200;28;20076;-69
2022/03/16 05:37:34;;;;;;;66.10;26.13;;;;;;;-148.23;100.00;61223.13;4978605;28;20030;-69
2022/03/16 05:39:59;;;;;;;57.08;22.40;;;;;;;-148.23;100.00;61223.13;4981297;28;20038;-70
2022/03/16 05:42:25;;;;;;;54.85;24.02;;;;;;;-148.23;100.00;61223.13;4975522;28;20074;-71
2022/03/16 05:44:54;;;;;;;51.42;24.17;;;;;;;-148.23;100.00;61223.13;4972394;28;20077;-70
2022/03/16 05:47:22;;;;;;;48.80;22.52;;;;;;;-148.23;100.00;61223.13;4962173;28;20034;-71
2022/03/16 05:49:53;;;;;;;52.33;22.10;;;;;;;-148.23;100.00;61223.13;4974225;28;20994;-70
2022/03/16 05:52:21;;;;;;;55.42;23.95;;;;;;;-148.23;100.00;61223.13;4975484;28;20109;-70
2022/03/16 05:54:54;;;;;;;53.67;23.80;;;;;;;-148.23;100.00;61223.13;4978614;28;20244;-68
2022/03/16 05:57:21;;;;;;;50.37;24.00;;;;;;;-148.23;100.00;61223.13;4957537;28;20031;-69
2022/03/16 05:59:46;;;;;;;47.90;22.20;;;;;;;-148.23;100.00;61223.13;4973274;28;20516;-69
2022/03/16 06:02:12;;;;;;;48.97;21.48;;;;;;;-148.23;100.00;61223.13;4962136;28;20038;-69
2022/03/16 06:04:38;;;;;;;40.35;19.90;;;;;;;-148.23;100.00;61223.13;4967345;28;20088;-69
2022/03/16 06:07:05;;;;;;;46.42;20.98;;;;;;;-148.23;100.00;61223.13;4982521;28;20034;-69
2022/03/16 06:09:30;;;;;;;49.17;24.15;;;;;;;-148.23;100.00;61223.13;4983139;28;20493;-69
2022/03/16 06:11:55;;;;;;;46.00;21.20;;;;;;;-148.23;100.00;61223.13;4979365;28;20034;-69
2022/03/16 06:14:21;;;;;;;39.20;20.10;;;;;;;-148.23;100.00;61223.13;4976786;28;20033;-69
2022/03/16 06:16:50;;;;;;;40.05;20.00;;;;;;;-148.23;100.00;61223.13;4981419;28;20038;-69
2022/03/16 06:19:15;;;;;;;43.20;18.92;;;;;;;-148.23;100.00;61223.13;4976094;28;20116;-69
2022/03/16 06:21:41;;;;;;;41.38;20.15;;;;;;;-148.23;100.00;61223.13;4981938;28;20464;-68
2022/03/16 06:24:06;;;;;;;39.55;20.20;;;;;;;-148.23;100.00;61223.13;4983411;28;20056;-69
2022/03/16 06:26:32;;;;;;;33.95;18.00;;;;;;;-148.23;100.00;61223.13;4985502;28;20034;-68
2022/03/16 06:28:57;;;;;;;36.58;17.88;;;;;;;-148.23;100.00;61223.13;4984681;28;20117;-69
2022/03/16 06:31:22;;;;;;;33.15;15.90;;;;;;;-148.23;100.00;61223.13;4969828;28;20501;-69
2022/03/16 06:33:48;;;;;;;33.17;15.93;;;;;;;-148.23;100.00;61223.13;4973400;28;20084;-69
2022/03/16 06:36:13;;;;;;;30.48;14.98;;;;;;;-148.23;100.00;61223.13;4980895;28;20032;-69
2022/03/16 06:38:38;;;;;;;34.20;14.73;;;;;;;-148.23;100.00;61223.13;4977827;28;20038;-68
2022/03/16 06:41:05;;;;;;;35.20;15.75;;;;;;;-148.23;100.00;61223.13;4964749;28;20481;-69
2022/03/16 06:43:30;;;;;;;35.25;16.75;;;;;;;-148.23;100.00;61223.13;4978152;28;20038;-68
2022/03/16 06:45:55;;;;;;;32.50;15.15;;;;;;;-148.23;100.00;61223.13;4980795;28;20053;-69
2022/03/16 06:48:23;;;;;;;26.58;13.25;;;;;;;-148.23;100.00;61223.13;4982320;28;20551;-69
2022/03/16 06:50:49;;;;;;;19.83;9.48;;;;;;;-148.23;100.00;61223.13;4978876;28;20037;-70
2022/03/16 06:53:14;;;;;;;22.33;11.68;;;;;;;-148.23;100.00;61223.13;4976728;28;20030;-69
2022/03/16 06:55:39;;;;;;;25.88;12.90;;;;;;;-148.23;100.00;61223.13;4983122;28;20034;-70
2022/03/16 06:58:05;;;;;;;27.90;13.40;;;;;;;-148.23;100.00;61223.13;4984036;28;20076;-70
2022/03/16 07:00:30;;;;;;;27.88;12.07;;;;;;;-148.23;100.00;61223.13;4981675;28;20030;-69
2022/03/16 07:03:00;;;;;;;25.52;11.32;;;;;;;-148.23;100.00;61223.13;4981183;28;20026;-70
2022/03/16 07:05:27;;;;;;;27.83;11.07;;;;;;;-148.23;100.00;61223.13;4981912;28;20026;-69
2022/03/16 07:07:55;;;;;;;20.27;11.45;;;;;;;-148.23;100.00;61223.13;4960495;28;20038;-70
2022/03/16 07:10:20;;;;;;;25.52;11.73;;;;;;;-148.23;100.00;61223.13;4978760;28;20034;-70
2022/03/16 07:12:45;;;;;;;19.65;10.35;;;;;;;-148.23;100.00;61223.13;4962332;28;20034;-69
2022/03/16 07:15:11;;;;;;;20.67;11.43;;;;;;;-148.23;100.00;61223.13;4975877;28;20073;-69
2022/03/16 07:17:37;;;;;;;22.38;11.48;;;;;;;-148.23;100.00;61223.13;4983744;28;20647;-68
2022/03/16 07:20:04;;;;;;;19.73;9.75;;;;;;;-148.23;100.00;61223.13;4979979;28;20042;-69
2022/03/16 07:22:29;;;;;;;20.50;10.63;;;;;;;-148.23;100.00;61223.13;4980165;28;20038;-68
2022/03/16 07:24:54;;;;;;;18.42;9.60;;;;;;;-148.23;100.00;61223.13;4980436;28;20044;-68
2022/03/16 07:27:20;;;;;;;19.05;9.25;;;;;;;-148.23;100.00;61223.13;4984009;28;20515;-69
2022/03/16 07:29:45;;;;;;;18.08;9.75;;;;;;;-148.23;100.00;61223.13;4978891;28;20113;-68
2022/03/16 07:32:10;;;;;;;19.33;10.07;;;;;;;-148.23;100.00;61223.13;4961976;28;20035;-68
2022/03/16 07:34:36;;;;;;;23.25;12.40;;;;;;;-148.23;100.00;61223.13;4982546;28;20069;-66
2022/03/16 07:37:01;;;;;;;19.58;9.88;;;;;;;-148.23;100.00;61223.13;4982890;28;20121;-67
2022/03/16 07:39:26;;;;;;;23.48;10.35;;;;;;;-148.23;100.00;61223.13;4981395;28;20540;-67
2022/03/16 07:41:51;;;;;;;17.02;9.48;;;;;;;-148.23;100.00;61223.13;4965589;28;20046;-67
2022/03/16 07:44:17;;;;;;;20.13;10.25;;;;;;;-148.23;100.00;61223.13;4983258;28;20038;-67
2022/03/16 07:46:42;;;;;;;16.67;10.23;;;;;;;-148.23;100.00;61223.13;4978924;28;20030;-67
2022/03/16 07:49:07;;;;;;;19.77;9.57;;;;;;;-148.23;100.00;61223.13;4980429;28;20054;-67
2022/03/16 07:51:33;;;;;;;24.92;14.45;;;;;;;-148.23;100.00;61223.13;4980003;28;20026;-67
2022/03/16 07:53:58;;;;;;;24.17;13.25;;;;;;;-148.23;100.00;61223.13;4960606;28;20050;-67
2022/03/16 07:56:23;;;;;;;22.20;11.25;;;;;;;-148.23;100.00;61223.13;4965264;28;20089;-67
2022/03/16 07:58:49;;;;;;;23.23;11.77;;;;;;;-148.23;100.00;61223.13;4965437;28;20165;-67
2022/03/16 08:01:14;;;;;;;24.70;12.50;;;;;;;-148.23;100.00;61223.13;4967420;28;20044;-67
2022/03/16 08:03:39;;;;;;;20.63;11.23;;;;;;;-148.23;100.00;61223.13;4981714;28;20516;-69
2022/03/16 08:06:05;;;;;;;23.05;13.10;;;;;;;-148.23;100.00;61223.13;4986163;28;20069;-70
2022/03/16 08:08:31;;;;;;;22.20;11.90;;;;;;;-148.23;100.00;61223.13;4984876;28;20088;-69
2022/03/16 08:10:56;;;;;;;19.02;10.38;;;;;;;-148.23;100.00;61223.13;4985792;28;20034;-69
2022/03/16 08:13:22;;;;;;;22.42;10.10;;;;;;;-148.23;100.00;61223.13;4979150;28;20506;-70
2022/03/16 08:15:47;;;;;;;20.15;9.30;;;;;;;-148.23;100.00;61223.13;4966343;28;20078;-69
2022/03/16 08:18:12;;;;;;;25.90;12.55;;;;;;;-148.23;100.00;61223.13;4980302;28;20527;-68
2022/03/16 08:20:38;;;;;;;20.23;11.05;;;;;;;-148.23;100.00;61223.13;4976042;28;20059;-70
2022/03/16 08:23:04;;;;;;;23.05;11.48;;;;;;;-148.23;100.00;61223.13;4981937;28;20034;-69
2022/03/16 08:25:29;;;;;;;24.52;11.55;;;;;;;-148.23;100.00;61223.13;4987828;28;20376;-69
2022/03/16 08:27:55;;;;;;;22.85;13.18;;;;;;;-148.23;100.00;61223.13;4980294;28;20031;-68
2022/03/16 08:30:20;;;;;;;22.75;12.00;;;;;;;-148.23;100.00;61223.13;4984781;28;20445;-67
2022/03/16 08:32:45;;;;;;;24.38;13.63;;;;;;;-148.23;100.00;61223.13;4981222;28;20073;-66
2022/03/16 08:35:11;;;;;;;20.95;9.93;;;;;;;-148.23;100.00;61223.13;4987613;28;20165;-67
2022/03/16 08:37:37;;;;;;;25.90;15.93;;;;;;;-148.23;100.00;61223.13;4987513;28;20432;-68
2022/03/16 08:40:04;;;;;;;21.65;11.65;;;;;;;-148.23;100.00;61223.13;4969115;28;20030;-69
2022/03/16 08:42:29;;;;;;;21.80;13.38;;;;;;;-148.23;100.00;61223.13;4986021;28;20042;-69
2022/03/16 08:44:55;;;;;;;23.92;12.07;;;;;;;-148.23;100.00;61223.13;4987355;28;20431;-67
2022/03/16 08:47:21;;;;;;;20.73;12.63;;;;;;;-148.23;100.00;61223.13;4987584;28;20676;-67
2022/03/16 08:49:48;;;;;;;23.13;11.60;;;;;;;-148.23;100.00;61223.13;4973244;28;20021;-66
2022/03/16 08:52:13;;;;;;;23.42;12.07;;;;;;;-148.23;100.00;61223.13;4982045;28;20516;-66
2022/03/16 08:54:40;;;;;;;19.85;11.52;;;;;;;-148.23;100.00;61223.13;4987814;28;20034;-66
2022/03/16 08:57:06;;;;;;;30.33;16.55;;;;;;;-148.23;100.00;61223.13;4981408;28;20023;-67
2022/03/16 08:59:31;;;;;;;20.60;11.88;;;;;;;-148.23;100.00;61223.13;4985760;28;20416;-67
2022/03/16 09:01:56;;;;;;;29.95;16.33;;;;;;;-148.23;100.00;61223.13;4983522;28;20081;-68
2022/03/16 09:04:21;;;;;;;23.80;13.93;;;;;;;-148.23;100.00;61223.13;4983190;28;20493;-69
2022/03/16 09:06:48;;;;;;;23.27;12.00;;;;;;;-148.23;100.00;61223.13;4982501;28;20122;-66
2022/03/16 09:09:14;;;;;;;27.00;14.20;;;;;;;-148.23;100.00;61223.13;4975556;28;20027;-67
2022/03/16 09:11:40;;;;;;;20.88;11.25;;;;;;;-148.23;100.00;61223.13;4977439;28;20077;-68
2022/03/16 09:14:05;;;;;;;23.08;14.65;;;;;;;-148.23;100.00;61223.13;4982528;28;20410;-67
2022/03/16 09:16:31;;;;;;;23.50;13.60;;;;;;;-148.23;100.00;61223.13;4986029;28;20034;-66
2022/03/16 09:18:56;;;;;;;21.65;13.25;;;;;;;-148.23;100.00;61223.13;4983588;28;20034;-69
2022/03/16 09:21:22;;;;;;;26.50;16.80;;;;;;;-148.23;100.00;61223.13;4976956;28;20069;-70
2022/03/16 09:23:48;;;;;;;23.75;13.23;;;;;;;-148.23;100.00;61223.13;4986051;28;20436;-69
2022/03/16 09:26:13;;;;;;;26.75;14.90;;;;;;;-148.23;100.00;61223.13;4986504;28;20026;-70
2022/03/16 09:28:38;;;;;;;28.10;15.13;;;;;;;-148.23;100.00;61223.13;4984557;28;20042;-69
2022/03/16 09:31:04;;;;;;;25.15;17.83;;;;;;;-148.23;100.00;61223.13;4980565;28;20101;-69
2022/03/16 09:33:30;;;;;;;23.30;13.57;;;;;;;-148.23;100.00;61223.13;4983767;28;20030;-68
2022/03/16 09:35:55;;;;;;;26.45;14.82;;;;;;;-148.23;100.00;61223.13;4986502;28;20350;-69
2022/03/16 09:38:21;;;;;;;25.92;17.60;;;;;;;-148.23;100.00;61223.13;4984736;28;20038;-69
2022/03/16 09:40:52;;;;;;;22.65;13.73;;;;;;;-148.23;100.00;61223.13;4985280;28;20412;-70
2022/03/16 09:43:19;;;;;;;23.08;15.13;;;;;;;-148.23;100.00;61223.13;4974184;28;20073;-68
2022/03/16 09:45:53;;;;;;;27.73;16.67;;;;;;;-148.23;100.00;61223.13;4985194;28;20057;-68
2022/03/16 09:48:21;;;;;;;27.75;13.70;;;;;;;-148.23;100.00;61223.13;4979198;28;20484;-69
2022/03/16 09:50:46;;;;;;;23.80;16.13;;;;;;;-148.23;100.00;61223.13;4981510;28;20473;-67
2022/03/16 09:53:13;;;;;;;22.88;12.32;;;;;;;-148.23;100.00;61223.13;4982998;28;20132;-67
2022/03/16 09:55:39;;;;;;;20.17;11.63;;;;;;;-148.23;100.00;61223.13;4981542;28;20035;-68
2022/03/16 09:58:05;;;;;;;22.08;9.90;;;;;;;-148.23;100.00;61223.13;4980270;28;20085;-69
2022/03/16 10:00:30;;;;;;;24.85;13.43;;;;;;;-148.23;100.00;61223.13;4980994;28;20045;-67
2022/03/16 10:03:02;;;;;;;24.35;12.43;;;;;;;-148.23;100.00;61223.13;4981218;28;20449;-68
2022/03/16 10:05:28;;;;;;;23.23;11.50;;;;;;;-148.23;100.00;61223.13;4975125;28;20042;-68
2022/03/16 10:07:54;;;;;;;21.17;11.25;;;;;;;-148.23;100.00;61223.13;4982531;28;20392;-70
2022/03/16 10:13:21;;;;;;;26.00;16.38;;;;;;;-148.23;100.00;61223.13;4969234;28;20452;-69
2022/03/16 10:15:46;;;;;;;22.95;14.10;;;;;;;-148.23;100.00;61223.13;4976980;28;20869;-68
2022/03/16 10:18:15;;;;;;;24.77;19.13;;;;;;;-148.23;100.00;61223.13;4965034;28;20026;-68
2022/03/16 10:20:41;;;;;;;23.08;16.67;;;;;;;-148.23;100.00;61223.13;4974423;28;20545;-69
2022/03/16 10:23:10;;;;;;;22.90;14.55;;;;;;;-148.23;100.00;61223.13;4981242;28;20042;-69
2022/03/16 10:25:42;;;;;;;22.60;13.65;;;;;;;-148.23;100.00;61223.13;4965358;28;20030;-68
2022/03/16 10:28:11;;;;;;;25.27;16.33;;;;;;;-148.23;100.00;61223.13;4980544;28;20072;-67
2022/03/16 10:31:02;;;;;;;24.75;15.85;;;;;;;-148.23;100.00;61223.13;4981890;28;20046;-67
2022/03/16 10:33:33;;;;;;;20.42;10.90;;;;;;;-148.23;100.00;61223.13;4977316;28;20062;-66
2022/03/16 10:36:28;;;;;;;20.30;10.93;;;;;;;-148.23;100.00;61223.13;4980229;28;20384;-66
2022/03/16 10:39:03;;;;;;;;;;;;;;;-148.23;100.00;61223.13;4980795;28;20161;-68
2022/03/16 10:47:18;;;;;;;24.08;14.98;;;;;;;-148.23;100.00;61223.13;4982461;28;20034;-68
2022/03/16 10:49:45;;;;;;;24.30;16.83;;;;;;;-148.23;100.00;61223.13;4983460;28;20026;-68
2022/03/16 10:52:14;;;;;;;27.30;14.52;;;;;;;-148.23;100.00;61223.13;4976835;28;20042;-68
2022/03/16 10:54:40;;;;;;;28.48;19.30;;;;;;;-148.23;100.00;61223.13;4974972;28;20368;-67
2022/03/16 10:57:10;;;;;;;27.98;18.20;;;;;;;-148.23;100.00;61223.13;4959691;28;20030;-69
2022/03/16 10:59:36;;;;;;;22.80;13.02;;;;;;;-148.23;100.00;61223.13;4972377;28;21312;-68